sensor_id;sensor_type;location;lat;lon;timestamp;P1;durP1;ratioP1;P2;durP2;ratioP2
19675;SDS011;39539;52.202;9.876;2023-08-08T00:01:43;3.33;;;2.95;;
19675;SDS011;39539;52.202;9.876;2023-08-08T00:04:09;3.80;;;3.47;;
19675;SDS011;39539;52.202;9.876;2023-08-08T00:06:36;4.47;;;3.00;;
19675;SDS011;39539;52.202;9.876;2023-08-08T00:09:01;3.25;;;2.95;;
19675;SDS011;39539;52.202;9.876;2023-08-08T00:11:30;6.50;;;3.63;;
19675;SDS011;39539;52.202;9.876;2023-08-08T00:13:55;3.47;;;3.00;;
19675;SDS011;39539;52.202;9.876;2023-08-08T00:16:24;3.95;;;3.20;;
19675;SDS011;39539;52.202;9.876;2023-08-08T00:18:49;3.95;;;2.85;;
19675;SDS011;39539;52.202;9.876;2023-08-08T00:21:17;4.55;;;3.22;;
19675;SDS011;39539;52.202;9.876;2023-08-08T00:23:42;3.92;;;3.38;;
19675;SDS011;39539;52.202;9.876;2023-08-08T00:26:07;4.18;;;3.05;;
19675;SDS011;39539;52.202;9.876;2023-08-08T00:28:34;3.40;;;3.05;;
19675;SDS011;39539;52.202;9.876;2023-08-08T00:30:59;4.00;;;3.20;;
19675;SDS011;39539;52.202;9.876;2023-08-08T00:33:25;3.60;;;3.15;;
19675;SDS011;39539;52.202;9.876;2023-08-08T00:35:50;6.32;;;3.70;;
19675;SDS011;39539;52.202;9.876;2023-08-08T00:38:17;4.05;;;3.15;;
19675;SDS011;39539;52.202;9.876;2023-08-08T00:40:43;3.80;;;3.42;;
19675;SDS011;39539;52.202;9.876;2023-08-08T00:43:09;4.28;;;3.75;;
19675;SDS011;39539;52.202;9.876;2023-08-08T00:45:37;3.33;;;3.03;;
19675;SDS011;39539;52.202;9.876;2023-08-08T00:48:05;3.67;;;3.35;;
19675;SDS011;39539;52.202;9.876;2023-08-08T00:50:31;3.75;;;3.45;;
19675;SDS011;39539;52.202;9.876;2023-08-08T00:52:56;4.18;;;3.42;;
19675;SDS011;39539;52.202;9.876;2023-08-08T00:55:22;4.05;;;3.50;;
19675;SDS011;39539;52.202;9.876;2023-08-08T00:57:48;4.78;;;3.50;;
19675;SDS011;39539;52.202;9.876;2023-08-08T01:00:13;4.25;;;3.90;;
19675;SDS011;39539;52.202;9.876;2023-08-08T01:02:39;3.90;;;3.30;;
19675;SDS011;39539;52.202;9.876;2023-08-08T01:05:05;3.38;;;3.17;;
19675;SDS011;39539;52.202;9.876;2023-08-08T01:07:52;4.18;;;3.78;;
19675;SDS011;39539;52.202;9.876;2023-08-08T01:10:32;3.65;;;3.20;;
19675;SDS011;39539;52.202;9.876;2023-08-08T01:13:02;3.88;;;3.15;;
19675;SDS011;39539;52.202;9.876;2023-08-08T01:15:30;3.78;;;3.40;;
19675;SDS011;39539;52.202;9.876;2023-08-08T01:18:01;3.63;;;3.33;;
19675;SDS011;39539;52.202;9.876;2023-08-08T01:20:29;4.13;;;3.72;;
19675;SDS011;39539;52.202;9.876;2023-08-08T01:22:57;3.50;;;3.20;;
19675;SDS011;39539;52.202;9.876;2023-08-08T01:25:39;4.07;;;3.75;;
19675;SDS011;39539;52.202;9.876;2023-08-08T01:28:05;4.13;;;3.80;;
19675;SDS011;39539;52.202;9.876;2023-08-08T01:30:31;3.67;;;3.20;;
19675;SDS011;39539;52.202;9.876;2023-08-08T01:32:57;3.35;;;3.05;;
19675;SDS011;39539;52.202;9.876;2023-08-08T01:35:23;4.57;;;3.90;;
19675;SDS011;39539;52.202;9.876;2023-08-08T01:37:58;3.78;;;3.47;;
19675;SDS011;39539;52.202;9.876;2023-08-08T01:40:29;4.38;;;3.80;;
19675;SDS011;39539;52.202;9.876;2023-08-08T01:42:56;4.60;;;3.97;;
19675;SDS011;39539;52.202;9.876;2023-08-08T01:45:23;3.65;;;3.35;;
19675;SDS011;39539;52.202;9.876;2023-08-08T01:47:51;4.85;;;3.80;;
19675;SDS011;39539;52.202;9.876;2023-08-08T01:50:17;4.60;;;4.20;;
19675;SDS011;39539;52.202;9.876;2023-08-08T01:52:44;4.35;;;3.95;;
19675;SDS011;39539;52.202;9.876;2023-08-08T01:55:16;5.72;;;4.25;;
19675;SDS011;39539;52.202;9.876;2023-08-08T01:57:41;4.38;;;3.97;;
19675;SDS011;39539;52.202;9.876;2023-08-08T02:00:16;4.70;;;4.30;;
19675;SDS011;39539;52.202;9.876;2023-08-08T02:02:41;4.40;;;4.10;;
19675;SDS011;39539;52.202;9.876;2023-08-08T02:05:07;5.73;;;4.60;;
19675;SDS011;39539;52.202;9.876;2023-08-08T02:07:33;4.45;;;4.15;;
19675;SDS011;39539;52.202;9.876;2023-08-08T02:10:04;4.80;;;4.40;;
19675;SDS011;39539;52.202;9.876;2023-08-08T02:12:31;4.60;;;4.22;;
19675;SDS011;39539;52.202;9.876;2023-08-08T02:14:57;4.90;;;4.40;;
19675;SDS011;39539;52.202;9.876;2023-08-08T02:17:24;5.15;;;4.72;;
19675;SDS011;39539;52.202;9.876;2023-08-08T02:19:50;5.65;;;4.70;;
19675;SDS011;39539;52.202;9.876;2023-08-08T02:22:16;5.07;;;4.53;;
19675;SDS011;39539;52.202;9.876;2023-08-08T02:24:42;4.93;;;4.43;;
19675;SDS011;39539;52.202;9.876;2023-08-08T02:27:08;5.18;;;4.70;;
19675;SDS011;39539;52.202;9.876;2023-08-08T02:29:34;4.80;;;4.40;;
19675;SDS011;39539;52.202;9.876;2023-08-08T02:31:59;5.57;;;4.82;;
19675;SDS011;39539;52.202;9.876;2023-08-08T02:34:24;4.80;;;4.43;;
19675;SDS011;39539;52.202;9.876;2023-08-08T02:36:50;5.80;;;5.18;;
19675;SDS011;39539;52.202;9.876;2023-08-08T02:39:16;5.03;;;4.45;;
19675;SDS011;39539;52.202;9.876;2023-08-08T02:41:41;5.00;;;4.60;;
19675;SDS011;39539;52.202;9.876;2023-08-08T02:44:07;4.95;;;4.55;;
19675;SDS011;39539;52.202;9.876;2023-08-08T02:46:33;5.43;;;5.00;;
19675;SDS011;39539;52.202;9.876;2023-08-08T02:48:58;4.95;;;4.55;;
19675;SDS011;39539;52.202;9.876;2023-08-08T02:51:24;5.60;;;4.55;;
19675;SDS011;39539;52.202;9.876;2023-08-08T02:53:50;4.90;;;4.40;;
19675;SDS011;39539;52.202;9.876;2023-08-08T02:56:15;5.22;;;4.82;;
19675;SDS011;39539;52.202;9.876;2023-08-08T02:58:40;5.07;;;4.63;;
19675;SDS011;39539;52.202;9.876;2023-08-08T03:01:06;4.95;;;4.53;;
19675;SDS011;39539;52.202;9.876;2023-08-08T03:03:31;4.38;;;3.97;;
19675;SDS011;39539;52.202;9.876;2023-08-08T03:05:58;4.95;;;4.55;;
19675;SDS011;39539;52.202;9.876;2023-08-08T03:08:24;5.95;;;4.68;;
19675;SDS011;39539;52.202;9.876;2023-08-08T03:10:50;4.57;;;4.18;;
19675;SDS011;39539;52.202;9.876;2023-08-08T03:13:15;6.68;;;4.63;;
19675;SDS011;39539;52.202;9.876;2023-08-08T03:15:40;5.03;;;4.55;;
19675;SDS011;39539;52.202;9.876;2023-08-08T03:18:09;4.80;;;4.32;;
19675;SDS011;39539;52.202;9.876;2023-08-08T03:20:34;4.57;;;4.22;;
19675;SDS011;39539;52.202;9.876;2023-08-08T03:22:59;4.88;;;4.45;;
19675;SDS011;39539;52.202;9.876;2023-08-08T03:25:25;5.30;;;4.90;;
19675;SDS011;39539;52.202;9.876;2023-08-08T03:27:50;6.03;;;4.72;;
19675;SDS011;39539;52.202;9.876;2023-08-08T03:30:16;5.30;;;4.90;;
19675;SDS011;39539;52.202;9.876;2023-08-08T03:32:41;4.90;;;4.47;;
19675;SDS011;39539;52.202;9.876;2023-08-08T03:35:08;4.63;;;4.15;;
19675;SDS011;39539;52.202;9.876;2023-08-08T03:37:34;4.75;;;4.32;;
19675;SDS011;39539;52.202;9.876;2023-08-08T03:40:00;5.30;;;4.25;;
19675;SDS011;39539;52.202;9.876;2023-08-08T03:42:26;4.73;;;4.33;;
19675;SDS011;39539;52.202;9.876;2023-08-08T03:44:51;4.45;;;4.05;;
19675;SDS011;39539;52.202;9.876;2023-08-08T03:47:17;3.97;;;3.63;;
19675;SDS011;39539;52.202;9.876;2023-08-08T03:49:43;4.57;;;4.18;;
19675;SDS011;39539;52.202;9.876;2023-08-08T03:52:09;4.78;;;3.88;;
19675;SDS011;39539;52.202;9.876;2023-08-08T03:54:34;4.25;;;3.70;;
19675;SDS011;39539;52.202;9.876;2023-08-08T03:57:02;4.40;;;4.10;;
19675;SDS011;39539;52.202;9.876;2023-08-08T03:59:29;3.97;;;3.55;;
19675;SDS011;39539;52.202;9.876;2023-08-08T04:01:55;3.95;;;3.65;;
19675;SDS011;39539;52.202;9.876;2023-08-08T04:04:20;4.38;;;3.90;;
19675;SDS011;39539;52.202;9.876;2023-08-08T04:06:45;4.40;;;4.00;;
19675;SDS011;39539;52.202;9.876;2023-08-08T04:09:11;3.97;;;3.67;;
19675;SDS011;39539;52.202;9.876;2023-08-08T04:11:38;3.75;;;3.45;;
19675;SDS011;39539;52.202;9.876;2023-08-08T04:14:03;3.63;;;3.33;;
19675;SDS011;39539;52.202;9.876;2023-08-08T04:16:28;4.10;;;3.65;;
19675;SDS011;39539;52.202;9.876;2023-08-08T04:18:53;3.92;;;3.63;;
19675;SDS011;39539;52.202;9.876;2023-08-08T04:21:20;4.72;;;3.72;;
19675;SDS011;39539;52.202;9.876;2023-08-08T04:23:46;4.00;;;3.70;;
19675;SDS011;39539;52.202;9.876;2023-08-08T04:26:20;4.80;;;3.60;;
19675;SDS011;39539;52.202;9.876;2023-08-08T04:28:46;3.40;;;3.10;;
19675;SDS011;39539;52.202;9.876;2023-08-08T04:31:11;3.78;;;3.38;;
19675;SDS011;39539;52.202;9.876;2023-08-08T04:33:36;3.33;;;3.08;;
19675;SDS011;39539;52.202;9.876;2023-08-08T04:36:02;3.53;;;3.22;;
19675;SDS011;39539;52.202;9.876;2023-08-08T04:38:27;4.10;;;3.20;;
19675;SDS011;39539;52.202;9.876;2023-08-08T04:40:56;3.45;;;3.15;;
19675;SDS011;39539;52.202;9.876;2023-08-08T04:43:21;3.58;;;3.28;;
19675;SDS011;39539;52.202;9.876;2023-08-08T04:45:46;3.53;;;3.22;;
19675;SDS011;39539;52.202;9.876;2023-08-08T04:48:15;3.35;;;3.05;;
19675;SDS011;39539;52.202;9.876;2023-08-08T04:50:40;3.20;;;2.90;;
19675;SDS011;39539;52.202;9.876;2023-08-08T04:53:06;3.30;;;2.90;;
19675;SDS011;39539;52.202;9.876;2023-08-08T04:55:31;3.10;;;2.90;;
19675;SDS011;39539;52.202;9.876;2023-08-08T04:57:58;3.45;;;3.15;;
19675;SDS011;39539;52.202;9.876;2023-08-08T05:00:25;3.20;;;2.97;;
19675;SDS011;39539;52.202;9.876;2023-08-08T05:05:56;3.25;;;3.05;;
19675;SDS011;39539;52.202;9.876;2023-08-08T05:08:27;3.37;;;3.07;;
19675;SDS011;39539;52.202;9.876;2023-08-08T05:10:56;3.00;;;2.80;;
19675;SDS011;39539;52.202;9.876;2023-08-08T05:13:22;3.20;;;3.00;;
19675;SDS011;39539;52.202;9.876;2023-08-08T05:15:48;3.80;;;3.50;;
19675;SDS011;39539;52.202;9.876;2023-08-08T05:18:15;4.28;;;3.35;;
19675;SDS011;39539;52.202;9.876;2023-08-08T05:20:40;3.58;;;3.28;;
19675;SDS011;39539;52.202;9.876;2023-08-08T05:23:07;3.30;;;3.00;;
19675;SDS011;39539;52.202;9.876;2023-08-08T05:25:32;4.15;;;3.75;;
19675;SDS011;39539;52.202;9.876;2023-08-08T05:30:44;5.03;;;3.60;;
19675;SDS011;39539;52.202;9.876;2023-08-08T05:33:10;4.63;;;4.30;;
19675;SDS011;39539;52.202;9.876;2023-08-08T05:35:37;4.13;;;3.72;;
19675;SDS011;39539;52.202;9.876;2023-08-08T05:38:06;4.28;;;3.72;;
19675;SDS011;39539;52.202;9.876;2023-08-08T05:40:35;4.10;;;3.80;;
19675;SDS011;39539;52.202;9.876;2023-08-08T05:43:02;4.20;;;3.90;;
19675;SDS011;39539;52.202;9.876;2023-08-08T05:45:29;6.50;;;4.30;;
19675;SDS011;39539;52.202;9.876;2023-08-08T05:47:54;4.35;;;3.95;;
19675;SDS011;39539;52.202;9.876;2023-08-08T05:50:21;4.00;;;3.70;;
19675;SDS011;39539;52.202;9.876;2023-08-08T05:52:46;5.15;;;4.68;;
19675;SDS011;39539;52.202;9.876;2023-08-08T05:55:13;4.65;;;4.18;;
19675;SDS011;39539;52.202;9.876;2023-08-08T05:57:39;4.50;;;4.20;;
19675;SDS011;39539;52.202;9.876;2023-08-08T06:00:04;4.82;;;4.45;;
19675;SDS011;39539;52.202;9.876;2023-08-08T06:02:30;5.00;;;4.50;;
19675;SDS011;39539;52.202;9.876;2023-08-08T06:04:56;4.60;;;4.20;;
19675;SDS011;39539;52.202;9.876;2023-08-08T06:07:24;4.88;;;4.57;;
19675;SDS011;39539;52.202;9.876;2023-08-08T06:09:50;4.93;;;4.57;;
19675;SDS011;39539;52.202;9.876;2023-08-08T06:12:15;4.82;;;4.43;;
19675;SDS011;39539;52.202;9.876;2023-08-08T06:14:42;5.03;;;4.60;;
19675;SDS011;39539;52.202;9.876;2023-08-08T06:17:07;4.47;;;4.15;;
19675;SDS011;39539;52.202;9.876;2023-08-08T06:19:34;5.20;;;4.80;;
19675;SDS011;39539;52.202;9.876;2023-08-08T06:21:59;6.53;;;4.35;;
19675;SDS011;39539;52.202;9.876;2023-08-08T06:24:25;4.90;;;4.38;;
19675;SDS011;39539;52.202;9.876;2023-08-08T06:26:50;4.60;;;4.22;;
19675;SDS011;39539;52.202;9.876;2023-08-08T06:29:15;5.32;;;4.20;;
19675;SDS011;39539;52.202;9.876;2023-08-08T06:31:44;4.32;;;3.90;;
19675;SDS011;39539;52.202;9.876;2023-08-08T06:34:13;4.65;;;4.25;;
19675;SDS011;39539;52.202;9.876;2023-08-08T06:36:41;6.05;;;3.92;;
19675;SDS011;39539;52.202;9.876;2023-08-08T06:39:06;4.25;;;3.85;;
19675;SDS011;39539;52.202;9.876;2023-08-08T06:41:38;5.20;;;3.60;;
19675;SDS011;39539;52.202;9.876;2023-08-08T06:44:04;3.53;;;3.22;;
19675;SDS011;39539;52.202;9.876;2023-08-08T06:46:33;3.65;;;3.38;;
19675;SDS011;39539;52.202;9.876;2023-08-08T06:49:04;4.53;;;3.53;;
19675;SDS011;39539;52.202;9.876;2023-08-08T06:51:29;4.10;;;3.40;;
19675;SDS011;39539;52.202;9.876;2023-08-08T06:53:56;3.35;;;2.75;;
19675;SDS011;39539;52.202;9.876;2023-08-08T06:56:21;3.22;;;2.85;;
19675;SDS011;39539;52.202;9.876;2023-08-08T06:58:59;4.45;;;2.50;;
19675;SDS011;39539;52.202;9.876;2023-08-08T07:01:34;3.17;;;2.88;;
19675;SDS011;39539;52.202;9.876;2023-08-08T07:04:05;3.95;;;3.03;;
19675;SDS011;39539;52.202;9.876;2023-08-08T07:06:36;3.03;;;2.80;;
19675;SDS011;39539;52.202;9.876;2023-08-08T07:09:01;4.35;;;3.17;;
19675;SDS011;39539;52.202;9.876;2023-08-08T07:11:28;4.00;;;2.97;;
19675;SDS011;39539;52.202;9.876;2023-08-08T07:13:56;2.90;;;2.70;;
19675;SDS011;39539;52.202;9.876;2023-08-08T07:16:21;2.80;;;2.38;;
19675;SDS011;39539;52.202;9.876;2023-08-08T07:18:47;2.78;;;2.55;;
19675;SDS011;39539;52.202;9.876;2023-08-08T07:21:13;4.20;;;3.00;;
19675;SDS011;39539;52.202;9.876;2023-08-08T07:23:41;4.53;;;2.90;;
19675;SDS011;39539;52.202;9.876;2023-08-08T07:26:07;3.17;;;2.90;;
19675;SDS011;39539;52.202;9.876;2023-08-08T07:28:33;3.17;;;2.88;;
19675;SDS011;39539;52.202;9.876;2023-08-08T07:30:59;3.78;;;2.80;;
19675;SDS011;39539;52.202;9.876;2023-08-08T07:33:24;3.13;;;2.92;;
19675;SDS011;39539;52.202;9.876;2023-08-08T07:35:50;3.00;;;2.40;;
19675;SDS011;39539;52.202;9.876;2023-08-08T07:38:15;3.92;;;2.45;;
19675;SDS011;39539;52.202;9.876;2023-08-08T07:40:42;2.67;;;2.42;;
19675;SDS011;39539;52.202;9.876;2023-08-08T07:43:07;2.55;;;2.35;;
19675;SDS011;39539;52.202;9.876;2023-08-08T07:45:33;3.15;;;2.38;;
19675;SDS011;39539;52.202;9.876;2023-08-08T07:47:58;2.45;;;2.25;;
19675;SDS011;39539;52.202;9.876;2023-08-08T07:50:24;3.97;;;2.63;;
19675;SDS011;39539;52.202;9.876;2023-08-08T07:52:50;4.38;;;2.70;;
19675;SDS011;39539;52.202;9.876;2023-08-08T07:55:16;3.97;;;2.92;;
19675;SDS011;39539;52.202;9.876;2023-08-08T07:57:41;2.50;;;2.30;;
19675;SDS011;39539;52.202;9.876;2023-08-08T08:00:07;2.60;;;2.40;;
19675;SDS011;39539;52.202;9.876;2023-08-08T08:02:39;3.42;;;2.45;;
19675;SDS011;39539;52.202;9.876;2023-08-08T08:05:05;3.10;;;2.08;;
19675;SDS011;39539;52.202;9.876;2023-08-08T08:07:34;2.40;;;2.20;;
19675;SDS011;39539;52.202;9.876;2023-08-08T08:10:04;2.38;;;1.85;;
19675;SDS011;39539;52.202;9.876;2023-08-08T08:12:31;2.15;;;1.95;;
19675;SDS011;39539;52.202;9.876;2023-08-08T08:14:57;3.25;;;1.75;;
19675;SDS011;39539;52.202;9.876;2023-08-08T08:17:23;3.45;;;1.70;;
19675;SDS011;39539;52.202;9.876;2023-08-08T08:19:50;3.17;;;1.95;;
19675;SDS011;39539;52.202;9.876;2023-08-08T08:22:16;2.25;;;1.75;;
19675;SDS011;39539;52.202;9.876;2023-08-08T08:24:42;2.47;;;1.63;;
19675;SDS011;39539;52.202;9.876;2023-08-08T08:27:07;3.10;;;1.75;;
19675;SDS011;39539;52.202;9.876;2023-08-08T08:29:33;3.75;;;1.77;;
19675;SDS011;39539;52.202;9.876;2023-08-08T08:31:59;2.45;;;1.80;;
19675;SDS011;39539;52.202;9.876;2023-08-08T08:34:25;3.85;;;1.75;;
19675;SDS011;39539;52.202;9.876;2023-08-08T08:36:51;2.63;;;1.88;;
19675;SDS011;39539;52.202;9.876;2023-08-08T08:39:29;3.80;;;1.67;;
19675;SDS011;39539;52.202;9.876;2023-08-08T08:41:58;2.80;;;1.92;;
19675;SDS011;39539;52.202;9.876;2023-08-08T08:44:30;6.97;;;3.17;;
19675;SDS011;39539;52.202;9.876;2023-08-08T08:47:03;6.32;;;4.00;;
19675;SDS011;39539;52.202;9.876;2023-08-08T08:49:36;6.95;;;4.38;;
19675;SDS011;39539;52.202;9.876;2023-08-08T08:52:04;5.50;;;4.25;;
19675;SDS011;39539;52.202;9.876;2023-08-08T08:54:31;5.35;;;3.90;;
19675;SDS011;39539;52.202;9.876;2023-08-08T08:56:57;4.57;;;4.13;;
19675;SDS011;39539;52.202;9.876;2023-08-08T08:59:23;4.70;;;4.30;;
19675;SDS011;39539;52.202;9.876;2023-08-08T09:01:50;4.80;;;4.40;;
19675;SDS011;39539;52.202;9.876;2023-08-08T09:04:18;5.25;;;4.85;;
19675;SDS011;39539;52.202;9.876;2023-08-08T09:06:45;5.63;;;4.53;;
19675;SDS011;39539;52.202;9.876;2023-08-08T09:09:13;4.90;;;4.50;;
19675;SDS011;39539;52.202;9.876;2023-08-08T09:11:45;4.97;;;4.47;;
19675;SDS011;39539;52.202;9.876;2023-08-08T09:14:19;5.60;;;5.10;;
19675;SDS011;39539;52.202;9.876;2023-08-08T09:16:48;5.93;;;5.07;;
19675;SDS011;39539;52.202;9.876;2023-08-08T09:19:23;5.18;;;4.70;;
19675;SDS011;39539;52.202;9.876;2023-08-08T09:21:51;5.10;;;4.70;;
19675;SDS011;39539;52.202;9.876;2023-08-08T09:27:11;4.97;;;4.30;;
19675;SDS011;39539;52.202;9.876;2023-08-08T09:29:37;4.35;;;3.95;;
19675;SDS011;39539;52.202;9.876;2023-08-08T09:32:06;6.57;;;4.22;;
19675;SDS011;39539;52.202;9.876;2023-08-08T09:34:35;5.78;;;4.53;;
19675;SDS011;39539;52.202;9.876;2023-08-08T09:37:01;5.95;;;5.45;;
19675;SDS011;39539;52.202;9.876;2023-08-08T09:39:29;5.93;;;5.28;;
19675;SDS011;39539;52.202;9.876;2023-08-08T09:41:56;5.38;;;4.93;;
19675;SDS011;39539;52.202;9.876;2023-08-08T09:44:25;6.07;;;5.63;;
19675;SDS011;39539;52.202;9.876;2023-08-08T09:46:54;5.20;;;4.88;;
19675;SDS011;39539;52.202;9.876;2023-08-08T09:49:21;5.55;;;5.15;;
19675;SDS011;39539;52.202;9.876;2023-08-08T09:51:48;6.10;;;5.53;;
19675;SDS011;39539;52.202;9.876;2023-08-08T09:54:19;5.47;;;5.07;;
19675;SDS011;39539;52.202;9.876;2023-08-08T09:56:58;5.35;;;4.85;;
19675;SDS011;39539;52.202;9.876;2023-08-08T09:59:23;5.82;;;5.32;;
19675;SDS011;39539;52.202;9.876;2023-08-08T10:01:51;6.38;;;5.78;;
19675;SDS011;39539;52.202;9.876;2023-08-08T10:04:22;5.70;;;5.30;;
19675;SDS011;39539;52.202;9.876;2023-08-08T10:06:52;5.38;;;4.88;;
19675;SDS011;39539;52.202;9.876;2023-08-08T10:09:18;6.50;;;5.13;;
19675;SDS011;39539;52.202;9.876;2023-08-08T10:11:43;4.18;;;3.70;;
19675;SDS011;39539;52.202;9.876;2023-08-08T10:14:10;6.00;;;3.25;;
19675;SDS011;39539;52.202;9.876;2023-08-08T10:16:36;4.05;;;3.67;;
19675;SDS011;39539;52.202;9.876;2023-08-08T10:19:03;3.58;;;3.28;;
19675;SDS011;39539;52.202;9.876;2023-08-08T10:21:34;3.33;;;3.03;;
19675;SDS011;39539;52.202;9.876;2023-08-08T10:24:19;3.50;;;3.20;;
19675;SDS011;39539;52.202;9.876;2023-08-08T10:26:57;3.70;;;3.50;;
19675;SDS011;39539;52.202;9.876;2023-08-08T10:29:27;3.55;;;3.20;;
19675;SDS011;39539;52.202;9.876;2023-08-08T10:31:59;3.92;;;3.17;;
19675;SDS011;39539;52.202;9.876;2023-08-08T10:37:10;3.95;;;3.35;;
19675;SDS011;39539;52.202;9.876;2023-08-08T10:39:37;4.18;;;3.25;;
19675;SDS011;39539;52.202;9.876;2023-08-08T10:42:17;4.40;;;4.00;;
19675;SDS011;39539;52.202;9.876;2023-08-08T10:44:43;4.00;;;3.60;;
19675;SDS011;39539;52.202;9.876;2023-08-08T10:47:11;3.95;;;3.65;;
19675;SDS011;39539;52.202;9.876;2023-08-08T10:49:37;4.55;;;4.15;;
19675;SDS011;39539;52.202;9.876;2023-08-08T10:52:03;4.57;;;4.18;;
19675;SDS011;39539;52.202;9.876;2023-08-08T10:54:30;4.13;;;3.78;;
19675;SDS011;39539;52.202;9.876;2023-08-08T10:57:15;4.75;;;3.55;;
19675;SDS011;39539;52.202;9.876;2023-08-08T10:59:41;4.10;;;3.72;;
19675;SDS011;39539;52.202;9.876;2023-08-08T11:02:07;3.78;;;3.35;;
19675;SDS011;39539;52.202;9.876;2023-08-08T11:04:33;3.63;;;3.17;;
19675;SDS011;39539;52.202;9.876;2023-08-08T11:07:01;4.10;;;3.25;;
19675;SDS011;39539;52.202;9.876;2023-08-08T11:09:26;3.92;;;3.25;;
19675;SDS011;39539;52.202;9.876;2023-08-08T11:11:53;3.88;;;3.58;;
19675;SDS011;39539;52.202;9.876;2023-08-08T11:14:22;3.75;;;3.45;;
19675;SDS011;39539;52.202;9.876;2023-08-08T11:16:48;4.68;;;3.35;;
19675;SDS011;39539;52.202;9.876;2023-08-08T11:19:15;3.78;;;3.28;;
19675;SDS011;39539;52.202;9.876;2023-08-08T11:24:43;3.20;;;2.78;;
19675;SDS011;39539;52.202;9.876;2023-08-08T11:27:27;3.40;;;2.42;;
19675;SDS011;39539;52.202;9.876;2023-08-08T11:29:55;2.63;;;2.38;;
19675;SDS011;39539;52.202;9.876;2023-08-08T11:32:23;3.50;;;2.30;;
19675;SDS011;39539;52.202;9.876;2023-08-08T11:35:07;3.25;;;2.40;;
19675;SDS011;39539;52.202;9.876;2023-08-08T11:37:54;2.65;;;2.10;;
19675;SDS011;39539;52.202;9.876;2023-08-08T11:40:23;3.70;;;2.15;;
19675;SDS011;39539;52.202;9.876;2023-08-08T11:42:51;5.07;;;1.92;;
19675;SDS011;39539;52.202;9.876;2023-08-08T11:45:18;4.07;;;2.28;;
19675;SDS011;39539;52.202;9.876;2023-08-08T11:47:54;2.42;;;2.15;;
19675;SDS011;39539;52.202;9.876;2023-08-08T11:50:21;3.00;;;2.55;;
19675;SDS011;39539;52.202;9.876;2023-08-08T11:52:50;3.88;;;2.72;;
19675;SDS011;39539;52.202;9.876;2023-08-08T11:55:21;8.82;;;3.00;;
19675;SDS011;39539;52.202;9.876;2023-08-08T11:57:53;3.58;;;2.70;;
19675;SDS011;39539;52.202;9.876;2023-08-08T12:00:21;2.58;;;2.38;;
19675;SDS011;39539;52.202;9.876;2023-08-08T12:02:58;4.72;;;2.65;;
19675;SDS011;39539;52.202;9.876;2023-08-08T12:05:25;2.20;;;2.00;;
19675;SDS011;39539;52.202;9.876;2023-08-08T12:07:52;2.22;;;1.83;;
19675;SDS011;39539;52.202;9.876;2023-08-08T12:10:20;4.00;;;2.08;;
19675;SDS011;39539;52.202;9.876;2023-08-08T12:16:14;2.20;;;1.77;;
19675;SDS011;39539;52.202;9.876;2023-08-08T12:18:45;5.65;;;1.75;;
19675;SDS011;39539;52.202;9.876;2023-08-08T12:21:10;3.05;;;1.20;;
19675;SDS011;39539;52.202;9.876;2023-08-08T12:23:36;1.58;;;1.38;;
19675;SDS011;39539;52.202;9.876;2023-08-08T12:26:11;3.47;;;1.13;;
19675;SDS011;39539;52.202;9.876;2023-08-08T12:28:36;2.85;;;1.20;;
19675;SDS011;39539;52.202;9.876;2023-08-08T12:31:03;1.83;;;1.25;;
19675;SDS011;39539;52.202;9.876;2023-08-08T12:36:31;2.05;;;1.25;;
19675;SDS011;39539;52.202;9.876;2023-08-08T12:39:02;2.58;;;1.33;;
19675;SDS011;39539;52.202;9.876;2023-08-08T12:41:28;1.45;;;1.20;;
19675;SDS011;39539;52.202;9.876;2023-08-08T12:43:54;1.27;;;1.17;;
19675;SDS011;39539;52.202;9.876;2023-08-08T12:46:23;2.63;;;1.23;;
19675;SDS011;39539;52.202;9.876;2023-08-08T12:48:49;2.65;;;1.50;;
19675;SDS011;39539;52.202;9.876;2023-08-08T12:51:16;2.55;;;1.20;;
19675;SDS011;39539;52.202;9.876;2023-08-08T12:53:42;2.63;;;1.40;;
19675;SDS011;39539;52.202;9.876;2023-08-08T12:56:22;1.88;;;1.20;;
19675;SDS011;39539;52.202;9.876;2023-08-08T12:58:51;1.10;;;1.00;;
19675;SDS011;39539;52.202;9.876;2023-08-08T13:01:16;1.45;;;1.10;;
19675;SDS011;39539;52.202;9.876;2023-08-08T13:03:45;3.63;;;1.30;;
19675;SDS011;39539;52.202;9.876;2023-08-08T13:06:10;1.92;;;0.98;;
19675;SDS011;39539;52.202;9.876;2023-08-08T13:08:37;2.60;;;1.45;;
19675;SDS011;39539;52.202;9.876;2023-08-08T13:11:08;3.08;;;1.38;;
19675;SDS011;39539;52.202;9.876;2023-08-08T13:13:33;2.75;;;1.23;;
19675;SDS011;39539;52.202;9.876;2023-08-08T13:15:59;2.58;;;1.50;;
19675;SDS011;39539;52.202;9.876;2023-08-08T13:18:43;2.40;;;1.30;;
19675;SDS011;39539;52.202;9.876;2023-08-08T13:21:10;1.65;;;1.10;;
19675;SDS011;39539;52.202;9.876;2023-08-08T13:23:36;1.77;;;1.10;;
19675;SDS011;39539;52.202;9.876;2023-08-08T13:26:01;2.38;;;1.25;;
19675;SDS011;39539;52.202;9.876;2023-08-08T13:28:29;2.08;;;1.20;;
19675;SDS011;39539;52.202;9.876;2023-08-08T13:30:55;1.90;;;1.30;;
19675;SDS011;39539;52.202;9.876;2023-08-08T13:33:21;1.08;;;0.93;;
19675;SDS011;39539;52.202;9.876;2023-08-08T13:35:47;2.30;;;1.30;;
19675;SDS011;39539;52.202;9.876;2023-08-08T13:38:14;2.45;;;0.88;;
19675;SDS011;39539;52.202;9.876;2023-08-08T13:40:52;1.58;;;1.40;;
19675;SDS011;39539;52.202;9.876;2023-08-08T13:43:18;1.40;;;1.08;;
19675;SDS011;39539;52.202;9.876;2023-08-08T13:45:43;1.67;;;0.80;;
19675;SDS011;39539;52.202;9.876;2023-08-08T13:48:09;1.65;;;0.70;;
19675;SDS011;39539;52.202;9.876;2023-08-08T13:50:36;1.98;;;0.90;;
19675;SDS011;39539;52.202;9.876;2023-08-08T13:53:01;2.60;;;0.90;;
19675;SDS011;39539;52.202;9.876;2023-08-08T13:55:27;0.95;;;0.85;;
19675;SDS011;39539;52.202;9.876;2023-08-08T13:57:52;0.95;;;0.82;;
19675;SDS011;39539;52.202;9.876;2023-08-08T14:00:21;1.27;;;0.93;;
19675;SDS011;39539;52.202;9.876;2023-08-08T14:02:47;4.20;;;0.90;;
19675;SDS011;39539;52.202;9.876;2023-08-08T14:05:16;2.63;;;0.90;;
19675;SDS011;39539;52.202;9.876;2023-08-08T14:07:48;0.75;;;0.70;;
19675;SDS011;39539;52.202;9.876;2023-08-08T14:10:13;2.15;;;0.95;;
19675;SDS011;39539;52.202;9.876;2023-08-08T14:12:39;3.85;;;0.82;;
19675;SDS011;39539;52.202;9.876;2023-08-08T14:15:05;1.52;;;0.82;;
19675;SDS011;39539;52.202;9.876;2023-08-08T14:17:32;2.92;;;0.80;;
19675;SDS011;39539;52.202;9.876;2023-08-08T14:19:57;2.13;;;1.00;;
19675;SDS011;39539;52.202;9.876;2023-08-08T14:22:24;1.88;;;0.90;;
19675;SDS011;39539;52.202;9.876;2023-08-08T14:24:49;0.85;;;0.80;;
19675;SDS011;39539;52.202;9.876;2023-08-08T14:27:16;1.15;;;0.60;;
19675;SDS011;39539;52.202;9.876;2023-08-08T14:29:43;0.98;;;0.80;;
19675;SDS011;39539;52.202;9.876;2023-08-08T14:32:09;1.08;;;0.90;;
19675;SDS011;39539;52.202;9.876;2023-08-08T14:34:35;1.63;;;0.80;;
19675;SDS011;39539;52.202;9.876;2023-08-08T14:37:03;1.10;;;0.80;;
19675;SDS011;39539;52.202;9.876;2023-08-08T14:39:29;2.88;;;1.20;;
19675;SDS011;39539;52.202;9.876;2023-08-08T14:41:55;0.70;;;0.70;;
19675;SDS011;39539;52.202;9.876;2023-08-08T14:44:21;1.13;;;0.65;;
19675;SDS011;39539;52.202;9.876;2023-08-08T14:46:46;2.72;;;0.80;;
19675;SDS011;39539;52.202;9.876;2023-08-08T14:49:12;2.03;;;0.93;;
19675;SDS011;39539;52.202;9.876;2023-08-08T14:51:37;0.90;;;0.68;;
19675;SDS011;39539;52.202;9.876;2023-08-08T14:54:04;1.52;;;0.68;;
19675;SDS011;39539;52.202;9.876;2023-08-08T14:56:30;1.42;;;0.80;;
19675;SDS011;39539;52.202;9.876;2023-08-08T14:58:55;2.08;;;0.80;;
19675;SDS011;39539;52.202;9.876;2023-08-08T15:01:21;1.52;;;0.70;;
19675;SDS011;39539;52.202;9.876;2023-08-08T15:03:47;1.15;;;0.70;;
19675;SDS011;39539;52.202;9.876;2023-08-08T15:06:12;0.73;;;0.50;;
19675;SDS011;39539;52.202;9.876;2023-08-08T15:08:38;3.00;;;0.80;;
19675;SDS011;39539;52.202;9.876;2023-08-08T15:11:03;1.88;;;0.70;;